Time;durP1;ratioP1;P1;durP2;ratioP2;P2;SDS_P1;SDS_P2;PMS_P1;PMS_P2;Temp;Humidity;BMP_temperature;BMP_pressure;BME280_temperature;BME280_humidity;BME280_pressure;Samples;Min_cycle;Max_cycle;Signal;HPM_P1;HPM_P2
2022/10/09 00:00:19;;;;;;;8.67;2.00;;;;;;;;;;5090910;28;20285;-77
2022/10/09 00:02:48;;;;;;;7.80;2.13;;;;;;;;;;5084938;28;20740;-77
2022/10/09 00:05:15;;;;;;;5.40;1.90;;;;;;;;;;5074986;28;20290;-77
2022/10/09 00:07:42;;;;;;;4.03;1.83;;;;;;;;;;5080508;28;20219;-77
2022/10/09 00:10:09;;;;;;;4.50;1.90;;;;;;;;;;5086361;28;20282;-78
2022/10/09 00:12:36;;;;;;;4.80;2.10;;;;;;;;;;5094765;28;20304;-77
2022/10/09 00:15:04;;;;;;;5.40;1.97;;;;;;;;;;5074988;28;20290;-77
2022/10/09 00:17:31;;;;;;;4.03;1.90;;;;;;;;;;5073915;28;20280;-78
2022/10/09 00:20:00;;;;;;;7.50;2.03;;;;;;;;;;5074346;28;20230;-78
2022/10/09 00:22:27;;;;;;;4.27;1.90;;;;;;;;;;5094797;28;20230;-78
2022/10/09 00:24:54;;;;;;;6.97;2.00;;;;;;;;;;5075107;28;20207;-78
2022/10/09 00:27:22;;;;;;;5.93;2.10;;;;;;;;;;5075814;28;20628;-78
2022/10/09 00:29:49;;;;;;;10.50;2.10;;;;;;;;;;5093260;28;20227;-78
2022/10/09 00:32:17;;;;;;;7.97;2.10;;;;;;;;;;5092994;28;20237;-78
2022/10/09 00:34:44;;;;;;;3.30;1.87;;;;;;;;;;5094614;28;20294;-78
2022/10/09 00:37:13;;;;;;;4.47;1.67;;;;;;;;;;5094883;28;20289;-78
2022/10/09 00:39:40;;;;;;;5.33;1.80;;;;;;;;;;5094181;28;20294;-78
2022/10/09 00:42:07;;;;;;;5.53;1.83;;;;;;;;;;5091656;28;20297;-77
2022/10/09 00:44:59;;;;;;;5.23;1.90;;;;;;;;;;5081407;28;20702;-78
2022/10/09 00:47:28;;;;;;;5.10;1.93;;;;;;;;;;5079275;28;20199;-78
2022/10/09 00:49:58;;;;;;;5.97;1.83;;;;;;;;;;5094682;28;20225;-78
2022/10/09 00:52:27;;;;;;;6.50;1.80;;;;;;;;;;5079662;28;20246;-78
2022/10/09 00:54:55;;;;;;;5.50;1.80;;;;;;;;;;5073825;28;20237;-78
2022/10/09 00:57:22;;;;;;;4.63;1.87;;;;;;;;;;5074272;28;20647;-78
2022/10/09 00:59:49;;;;;;;4.83;1.73;;;;;;;;;;5074196;28;20238;-78
2022/10/09 01:02:16;;;;;;;3.80;1.80;;;;;;;;;;5073573;28;20277;-78
2022/10/09 01:04:44;;;;;;;6.23;1.80;;;;;;;;;;5081145;28;20222;-78
2022/10/09 01:07:23;;;;;;;8.00;2.03;;;;;;;;;;5094250;28;20281;-78
2022/10/09 01:09:56;;;;;;;4.53;1.80;;;;;;;;;;5094029;28;20238;-78
2022/10/09 01:12:28;;;;;;;4.47;1.70;;;;;;;;;;5094182;28;20289;-78
2022/10/09 01:14:59;;;;;;;4.67;1.77;;;;;;;;;;5083992;28;20259;-78
2022/10/09 01:17:29;;;;;;;4.40;1.37;;;;;;;;;;5073758;28;20325;-78
2022/10/09 01:20:03;;;;;;;4.40;1.60;;;;;;;;;;5074056;28;20284;-78
2022/10/09 01:22:33;;;;;;;5.90;1.80;;;;;;;;;;5073798;28;20623;-78
2022/10/09 01:25:06;;;;;;;6.63;1.63;;;;;;;;;;5075966;28;20333;-78
2022/10/09 01:27:35;;;;;;;5.90;1.90;;;;;;;;;;5093570;28;20643;-78
2022/10/09 01:30:03;;;;;;;6.57;1.70;;;;;;;;;;5094135;28;20305;-77
2022/10/09 01:32:33;;;;;;;4.00;1.70;;;;;;;;;;5081823;28;20663;-78
2022/10/09 01:35:01;;;;;;;6.57;1.90;;;;;;;;;;5073165;28;20237;-78
2022/10/09 01:37:29;;;;;;;6.97;1.93;;;;;;;;;;5073881;28;20245;-78
2022/10/09 01:39:56;;;;;;;4.90;1.60;;;;;;;;;;5073391;28;20286;-78
2022/10/09 01:42:25;;;;;;;4.17;1.83;;;;;;;;;;5077837;28;20272;-77
2022/10/09 01:44:54;;;;;;;6.63;2.00;;;;;;;;;;5073149;28;20690;-77
2022/10/09 01:47:22;;;;;;;5.40;2.03;;;;;;;;;;5073005;28;20289;-77
2022/10/09 01:49:53;;;;;;;7.63;2.10;;;;;;;;;;5073074;28;20285;-77
2022/10/09 01:52:24;;;;;;;7.93;1.83;;;;;;;;;;5086734;28;20758;-77
2022/10/09 01:55:00;;;;;;;5.13;2.00;;;;;;;;;;5072812;28;20217;-77
2022/10/09 01:57:29;;;;;;;3.90;2.17;;;;;;;;;;5081082;28;20308;-77
2022/10/09 01:59:59;;;;;;;4.70;1.63;;;;;;;;;;5086161;28;20282;-77
2022/10/09 02:02:27;;;;;;;4.63;1.90;;;;;;;;;;5072727;28;20273;-77
2022/10/09 02:04:54;;;;;;;8.13;2.10;;;;;;;;;;5072766;28;20281;-77
2022/10/09 02:07:23;;;;;;;5.17;2.00;;;;;;;;;;5078468;28;20299;-77
2022/10/09 02:09:50;;;;;;;6.33;2.07;;;;;;;;;;5072059;28;20199;-77
2022/10/09 02:12:18;;;;;;;5.93;2.00;;;;;;;;;;5079336;28;20253;-77
2022/10/09 02:14:45;;;;;;;3.60;1.93;;;;;;;;;;5072848;28;20233;-77
2022/10/09 02:17:17;;;;;;;5.33;1.90;;;;;;;;;;5078971;28;20282;-77
2022/10/09 02:19:47;;;;;;;4.97;1.90;;;;;;;;;;5090407;28;20327;-77
2022/10/09 02:22:16;;;;;;;4.13;2.20;;;;;;;;;;5091606;28;20289;-78
2022/10/09 02:24:44;;;;;;;5.03;2.10;;;;;;;;;;5075950;28;20290;-77
2022/10/09 02:27:12;;;;;;;5.03;1.93;;;;;;;;;;5072329;28;20234;-77
2022/10/09 02:29:39;;;;;;;7.13;2.27;;;;;;;;;;5084525;28;20731;-77
2022/10/09 02:32:06;;;;;;;4.60;2.00;;;;;;;;;;5092371;28;20233;-77
2022/10/09 02:34:35;;;;;;;4.30;2.10;;;;;;;;;;5091642;28;20288;-78
2022/10/09 02:37:02;;;;;;;5.73;2.20;;;;;;;;;;5086188;28;20239;-77
2022/10/09 02:39:29;;;;;;;10.27;2.30;;;;;;;;;;5072397;28;20261;-77
2022/10/09 02:41:56;;;;;;;6.33;2.00;;;;;;;;;;5085406;28;20236;-77
2022/10/09 02:44:24;;;;;;;4.67;2.20;;;;;;;;;;5090920;28;20729;-78
2022/10/09 02:46:51;;;;;;;4.97;2.17;;;;;;;;;;5087726;28;20712;-78
2022/10/09 02:49:18;;;;;;;6.40;2.20;;;;;;;;;;5071953;28;20751;-78
2022/10/09 02:51:46;;;;;;;4.87;2.17;;;;;;;;;;5071881;28;20285;-78
2022/10/09 02:54:14;;;;;;;4.43;1.90;;;;;;;;;;5072223;28;20704;-77
2022/10/09 02:56:41;;;;;;;6.77;2.10;;;;;;;;;;5075135;28;20208;-78
2022/10/09 02:59:08;;;;;;;6.63;2.20;;;;;;;;;;5072160;28;20321;-77
2022/10/09 03:01:35;;;;;;;5.80;2.23;;;;;;;;;;5071645;28;20292;-77
2022/10/09 03:04:02;;;;;;;7.07;2.27;;;;;;;;;;5072208;28;20316;-77
2022/10/09 03:06:30;;;;;;;7.00;2.30;;;;;;;;;;5084570;28;20629;-77
2022/10/09 03:08:59;;;;;;;7.73;2.10;;;;;;;;;;5076169;28;20205;-78
2022/10/09 03:11:26;;;;;;;4.77;2.17;;;;;;;;;;5083806;28;20762;-77
2022/10/09 03:13:54;;;;;;;4.43;1.87;;;;;;;;;;5071620;28;20293;-77
2022/10/09 03:16:22;;;;;;;7.33;2.30;;;;;;;;;;5072902;28;20240;-77
2022/10/09 03:18:50;;;;;;;4.90;2.07;;;;;;;;;;5075187;28;20239;-77
2022/10/09 03:21:19;;;;;;;4.13;2.00;;;;;;;;;;5080098;28;20453;-77
2022/10/09 03:23:46;;;;;;;7.90;2.40;;;;;;;;;;5075090;28;20250;-77
2022/10/09 03:26:16;;;;;;;5.23;2.30;;;;;;;;;;5075516;28;20715;-77
2022/10/09 03:28:44;;;;;;;5.50;2.23;;;;;;;;;;5075108;28;20235;-77
2022/10/09 03:31:11;;;;;;;6.27;2.60;;;;;;;;;;5075769;28;20205;-77
2022/10/09 03:33:38;;;;;;;6.33;2.37;;;;;;;;;;5077160;28;20226;-78
2022/10/09 03:36:06;;;;;;;6.10;2.30;;;;;;;;;;5076073;28;20201;-77
2022/10/09 03:38:33;;;;;;;4.80;2.13;;;;;;;;;;5092395;28;20645;-77
2022/10/09 03:41:01;;;;;;;5.00;2.03;;;;;;;;;;5095614;28;20290;-77
2022/10/09 03:43:30;;;;;;;8.77;2.50;;;;;;;;;;5083256;28;20694;-77
2022/10/09 03:45:57;;;;;;;5.43;2.30;;;;;;;;;;5081104;28;20223;-77
2022/10/09 03:48:24;;;;;;;5.07;2.27;;;;;;;;;;5079975;28;20273;-77
2022/10/09 03:50:52;;;;;;;5.87;2.30;;;;;;;;;;5095452;28;20285;-77
2022/10/09 03:53:19;;;;;;;6.03;2.20;;;;;;;;;;5095930;28;20283;-77
2022/10/09 03:55:46;;;;;;;7.60;2.30;;;;;;;;;;5095583;28;20296;-78
2022/10/09 03:58:13;;;;;;;7.60;2.53;;;;;;;;;;5091215;28;20308;-77
2022/10/09 04:00:44;;;;;;;6.73;2.10;;;;;;;;;;5085480;28;20646;-77
2022/10/09 04:03:11;;;;;;;7.50;2.40;;;;;;;;;;5090347;28;20283;-77
2022/10/09 04:05:39;;;;;;;6.67;2.40;;;;;;;;;;5087440;28;20294;-77
2022/10/09 04:08:06;;;;;;;3.90;2.27;;;;;;;;;;5077122;28;20233;-77
2022/10/09 04:10:33;;;;;;;5.30;2.10;;;;;;;;;;5088250;28;20291;-77
2022/10/09 04:13:01;;;;;;;6.20;2.60;;;;;;;;;;5094437;28;20279;-77
2022/10/09 04:15:28;;;;;;;6.27;2.70;;;;;;;;;;5095047;28;20244;-77
2022/10/09 04:17:56;;;;;;;7.83;2.30;;;;;;;;;;5094980;28;20237;-77
2022/10/09 04:20:24;;;;;;;5.40;2.43;;;;;;;;;;5094953;28;20317;-77
2022/10/09 04:22:51;;;;;;;6.90;2.37;;;;;;;;;;5092063;28;20251;-77
2022/10/09 04:25:18;;;;;;;6.97;2.50;;;;;;;;;;5088867;28;20234;-77
2022/10/09 04:27:45;;;;;;;8.97;2.87;;;;;;;;;;5088534;28;20232;-77
2022/10/09 04:30:13;;;;;;;8.13;2.23;;;;;;;;;;5093984;28;20302;-77
2022/10/09 04:32:40;;;;;;;7.37;2.50;;;;;;;;;;5094696;28;20292;-77
2022/10/09 04:35:09;;;;;;;3.70;2.17;;;;;;;;;;5095304;28;20240;-77
2022/10/09 04:37:36;;;;;;;4.53;2.17;;;;;;;;;;5089363;28;20288;-77
2022/10/09 04:40:04;;;;;;;6.37;2.47;;;;;;;;;;5074667;28;20332;-77
2022/10/09 04:42:31;;;;;;;6.40;2.67;;;;;;;;;;5084283;28;20626;-77
2022/10/09 04:44:59;;;;;;;7.97;3.07;;;;;;;;;;5094555;28;20412;-77
2022/10/09 04:47:26;;;;;;;7.77;2.60;;;;;;;;;;5094075;28;20622;-78
2022/10/09 04:49:53;;;;;;;7.43;2.50;;;;;;;;;;5094350;28;20758;-77
2022/10/09 04:52:21;;;;;;;4.73;2.33;;;;;;;;;;5094642;28;20237;-77
2022/10/09 04:54:49;;;;;;;4.57;2.53;;;;;;;;;;5094280;28;20237;-77
2022/10/09 04:57:16;;;;;;;4.90;2.30;;;;;;;;;;5090126;28;20288;-77
2022/10/09 04:59:43;;;;;;;10.83;2.80;;;;;;;;;;5073720;28;20321;-77
2022/10/09 05:02:10;;;;;;;7.37;2.57;;;;;;;;;;5087855;28;20643;-77
2022/10/09 05:04:37;;;;;;;11.00;2.60;;;;;;;;;;5094508;28;20639;-77
2022/10/09 05:07:04;;;;;;;6.10;2.33;;;;;;;;;;5080990;28;20281;-77
2022/10/09 05:09:33;;;;;;;5.97;2.23;;;;;;;;;;5074461;28;20283;-77
2022/10/09 05:12:00;;;;;;;6.07;2.37;;;;;;;;;;5073834;28;20289;-77
2022/10/09 05:14:27;;;;;;;5.57;2.50;;;;;;;;;;5082924;28;20665;-77
2022/10/09 05:16:56;;;;;;;7.03;2.93;;;;;;;;;;5089303;28;20949;-77
2022/10/09 05:19:23;;;;;;;5.60;2.50;;;;;;;;;;5089254;28;20211;-77
2022/10/09 05:21:50;;;;;;;5.33;2.80;;;;;;;;;;5090680;28;20233;-77
2022/10/09 05:24:17;;;;;;;9.07;2.60;;;;;;;;;;5079537;28;20285;-77
2022/10/09 05:26:46;;;;;;;7.97;2.70;;;;;;;;;;5077604;28;20255;-77
2022/10/09 05:29:13;;;;;;;7.37;2.90;;;;;;;;;;5078229;28;20300;-77
2022/10/09 05:31:41;;;;;;;6.93;2.43;;;;;;;;;;5088248;28;20292;-76
2022/10/09 05:34:09;;;;;;;4.93;2.80;;;;;;;;;;5073060;28;20258;-77
2022/10/09 05:36:36;;;;;;;7.20;2.50;;;;;;;;;;5083037;28;20197;-77
2022/10/09 05:39:03;;;;;;;5.27;2.60;;;;;;;;;;5086550;28;20301;-77
2022/10/09 05:41:30;;;;;;;6.60;2.70;;;;;;;;;;5093421;28;20293;-77
2022/10/09 05:44:02;;;;;;;5.93;2.50;;;;;;;;;;5088838;28;20285;-77
2022/10/09 05:46:29;;;;;;;4.93;2.43;;;;;;;;;;5073409;28;20227;-77
2022/10/09 05:48:58;;;;;;;4.33;2.63;;;;;;;;;;5073510;28;20195;-77
2022/10/09 05:51:27;;;;;;;8.13;2.87;;;;;;;;;;5080652;28;20331;-77
2022/10/09 05:53:55;;;;;;;7.03;2.50;;;;;;;;;;5079560;28;20238;-77
2022/10/09 05:56:23;;;;;;;7.30;2.60;;;;;;;;;;5072937;28;20209;-77
2022/10/09 05:58:51;;;;;;;6.13;2.67;;;;;;;;;;5072497;28;20206;-77
2022/10/09 06:01:20;;;;;;;6.27;2.93;;;;;;;;;;5072688;28;20206;-77
2022/10/09 06:03:50;;;;;;;9.47;2.50;;;;;;;;;;5072651;28;20321;-77
2022/10/09 06:06:18;;;;;;;5.50;2.70;;;;;;;;;;5080829;28;20281;-77
2022/10/09 06:08:46;;;;;;;5.30;2.60;;;;;;;;;;5072502;28;20285;-77
2022/10/09 06:11:14;;;;;;;5.83;2.70;;;;;;;;;;5080845;28;20288;-77
2022/10/09 06:13:41;;;;;;;6.23;2.60;;;;;;;;;;5092582;28;20283;-77
2022/10/09 06:16:10;;;;;;;6.57;2.20;;;;;;;;;;5080721;28;20290;-77
2022/10/09 06:18:38;;;;;;;7.40;2.67;;;;;;;;;;5072396;28;20208;-77
2022/10/09 06:21:06;;;;;;;7.13;2.90;;;;;;;;;;5086763;28;20254;-77
2022/10/09 06:23:33;;;;;;;9.73;2.93;;;;;;;;;;5092817;28;20289;-77
2022/10/09 06:26:01;;;;;;;7.00;2.50;;;;;;;;;;5086260;28;20233;-77
2022/10/09 06:28:28;;;;;;;7.77;2.70;;;;;;;;;;5071983;28;20309;-77
2022/10/09 06:31:00;;;;;;;6.27;3.03;;;;;;;;;;5078522;28;20282;-77
2022/10/09 06:33:29;;;;;;;5.83;2.60;;;;;;;;;;5084486;28;20287;-77
2022/10/09 06:36:00;;;;;;;8.47;2.87;;;;;;;;;;5088097;28;20226;-77
2022/10/09 06:38:28;;;;;;;7.67;2.73;;;;;;;;;;5072469;28;20202;-77
2022/10/09 06:40:55;;;;;;;7.43;2.50;;;;;;;;;;5090012;28;20247;-77
2022/10/09 06:43:22;;;;;;;5.97;2.53;;;;;;;;;;5091233;28;20197;-77
2022/10/09 06:45:49;;;;;;;7.37;2.57;;;;;;;;;;5092196;28;20285;-77
2022/10/09 06:48:17;;;;;;;8.53;2.30;;;;;;;;;;5092706;28;20240;-78
2022/10/09 06:50:44;;;;;;;7.43;2.60;;;;;;;;;;5086954;28;20270;-77
2022/10/09 06:53:12;;;;;;;7.77;2.20;;;;;;;;;;5072269;28;20231;-77
2022/10/09 06:55:40;;;;;;;5.67;2.37;;;;;;;;;;5081908;28;20403;-77
2022/10/09 06:58:07;;;;;;;7.53;2.10;;;;;;;;;;5090774;28;20237;-77
2022/10/09 07:00:34;;;;;;;4.47;2.10;;;;;;;;;;5083972;28;20260;-77
2022/10/09 07:03:01;;;;;;;6.60;2.23;;;;;;;;;;5080218;28;20321;-77
2022/10/09 07:05:28;;;;;;;5.63;2.07;;;;;;;;;;5080581;28;20262;-77
2022/10/09 07:07:55;;;;;;;5.87;2.30;;;;;;;;;;5082007;28;20221;-78
2022/10/09 07:10:24;;;;;;;7.10;2.07;;;;;;;;;;5085769;28;20218;-77
2022/10/09 07:12:51;;;;;;;4.23;1.90;;;;;;;;;;5079062;28;20263;-77
2022/10/09 07:15:18;;;;;;;4.73;2.10;;;;;;;;;;5078298;28;20282;-77
2022/10/09 07:17:46;;;;;;;5.07;2.17;;;;;;;;;;5092543;28;20237;-77
2022/10/09 07:20:13;;;;;;;5.60;1.90;;;;;;;;;;5091801;28;20309;-76
2022/10/09 07:22:40;;;;;;;5.20;2.00;;;;;;;;;;5092505;28;20226;-76
2022/10/09 07:25:08;;;;;;;4.73;1.80;;;;;;;;;;5091172;28;20277;-79
2022/10/09 07:27:36;;;;;;;5.00;2.00;;;;;;;;;;5081657;28;20238;-79
2022/10/09 07:30:04;;;;;;;4.20;1.90;;;;;;;;;;5084755;28;20297;-79
2022/10/09 07:32:31;;;;;;;6.88;2.00;;;;;;;;;;5091122;28;20282;-78
2022/10/09 07:34:58;;;;;;;5.82;2.20;;;;;;;;;;5076684;28;20238;-77
2022/10/09 07:37:26;;;;;;;3.95;1.60;;;;;;;;;;5088778;28;20281;-77
2022/10/09 07:39:53;;;;;;;3.90;1.73;;;;;;;;;;5079123;28;20310;-77
2022/10/09 07:42:20;;;;;;;4.95;1.90;;;;;;;;;;5073429;28;20676;-77
2022/10/09 07:44:49;;;;;;;3.63;1.70;;;;;;;;;;5090537;28;20203;-77
2022/10/09 07:47:16;;;;;;;4.30;1.50;;;;;;;;;;5091746;28;20289;-77
2022/10/09 07:49:43;;;;;;;4.20;1.60;;;;;;;;;;5091080;28;20229;-77
2022/10/09 07:52:10;;;;;;;3.40;1.42;;;;;;;;;;5091495;28;20290;-77
2022/10/09 07:54:37;;;;;;;4.65;1.60;;;;;;;;;;5085563;28;20873;-77
2022/10/09 07:57:05;;;;;;;5.15;1.80;;;;;;;;;;5088554;28;21080;-77
2022/10/09 07:59:32;;;;;;;4.43;1.67;;;;;;;;;;5090457;28;20224;-78
2022/10/09 08:02:01;;;;;;;4.05;1.35;;;;;;;;;;5091693;28;20290;-77
2022/10/09 08:04:28;;;;;;;3.22;1.48;;;;;;;;;;5085053;28;20742;-77
2022/10/09 08:06:57;;;;;;;5.53;1.77;;;;;;;;;;5094975;28;20260;-77
2022/10/09 08:09:24;;;;;;;4.32;1.65;;;;;;;;;;5094656;28;20206;-77
2022/10/09 08:11:51;;;;;;;3.90;1.75;;;;;;;;;;5081486;28;20289;-77
2022/10/09 08:14:18;;;;;;;5.13;1.80;;;;;;;;;;5089978;28;20696;-77
2022/10/09 08:16:45;;;;;;;5.35;1.77;;;;;;;;;;5094589;28;20683;-77
2022/10/09 08:19:14;;;;;;;3.83;1.50;;;;;;;;;;5095321;28;20665;-77
2022/10/09 08:21:41;;;;;;;6.57;1.90;;;;;;;;;;5079970;28;20258;-77
2022/10/09 08:24:11;;;;;;;3.42;1.60;;;;;;;;;;5076473;28;20289;-77
2022/10/09 08:26:38;;;;;;;3.67;1.65;;;;;;;;;;5082343;28;20194;-78
2022/10/09 08:29:07;;;;;;;5.32;1.73;;;;;;;;;;5085077;28;20338;-78
2022/10/09 08:31:34;;;;;;;3.50;1.63;;;;;;;;;;5080950;28;20570;-78
2022/10/09 08:34:03;;;;;;;5.00;1.70;;;;;;;;;;5081146;28;20263;-78
2022/10/09 08:36:32;;;;;;;4.30;1.80;;;;;;;;;;5087410;28;20226;-78
2022/10/09 08:38:59;;;;;;;3.63;1.60;;;;;;;;;;5079106;28;20237;-78
2022/10/09 08:41:37;;;;;;;3.95;1.80;;;;;;;;;;5086712;28;20222;-78
2022/10/09 08:44:06;;;;;;;3.67;1.85;;;;;;;;;;5086883;28;20285;-78
2022/10/09 08:46:36;;;;;;;5.22;1.80;;;;;;;;;;5087689;28;20213;-78
2022/10/09 08:49:04;;;;;;;4.85;2.00;;;;;;;;;;5084879;28;20230;-78
2022/10/09 08:51:37;;;;;;;4.57;1.65;;;;;;;;;;5086052;28;20234;-77
2022/10/09 08:54:10;;;;;;;4.95;1.55;;;;;;;;;;5075334;28;20646;-78
2022/10/09 08:56:38;;;;;;;3.45;1.80;;;;;;;;;;5079974;28;20298;-77
2022/10/09 08:59:05;;;;;;;6.07;1.98;;;;;;;;;;5077244;28;20736;-78
2022/10/09 09:01:36;;;;;;;3.88;1.70;;;;;;;;;;5084393;28;20258;-78
2022/10/09 09:04:13;;;;;;;4.75;1.40;;;;;;;;;;5078914;28;20313;-78
2022/10/09 09:06:47;;;;;;;3.25;1.73;;;;;;;;;;5085611;28;20286;-77
2022/10/09 09:09:17;;;;;;;3.42;1.70;;;;;;;;;;5082656;28;20305;-78
2022/10/09 09:11:48;;;;;;;4.80;1.83;;;;;;;;;;5081596;28;20618;-76
2022/10/09 09:14:22;;;;;;;3.60;1.33;;;;;;;;;;5072772;28;20286;-77
2022/10/09 09:16:52;;;;;;;4.40;1.60;;;;;;;;;;5090186;28;20285;-78
2022/10/09 09:19:34;;;;;;;3.75;1.50;;;;;;;;;;5078489;28;20624;-78
2022/10/09 09:22:03;;;;;;;3.80;1.65;;;;;;;;;;5091895;28;20259;-79
2022/10/09 09:24:34;;;;;;;4.15;1.60;;;;;;;;;;5079560;28;20229;-78
2022/10/09 09:27:03;;;;;;;5.22;1.60;;;;;;;;;;5086141;28;20584;-79
2022/10/09 09:29:36;;;;;;;4.13;1.33;;;;;;;;;;5084976;28;20275;-79
2022/10/09 09:32:03;;;;;;;4.10;1.50;;;;;;;;;;5093333;28;20234;-79
2022/10/09 09:34:34;;;;;;;7.13;1.60;;;;;;;;;;5090872;28;20277;-78
2022/10/09 09:37:03;;;;;;;6.05;1.55;;;;;;;;;;5083218;28;20280;-78
2022/10/09 09:39:31;;;;;;;2.45;1.40;;;;;;;;;;5080686;28;20260;-79
2022/10/09 09:42:01;;;;;;;5.30;1.83;;;;;;;;;;5075669;28;20221;-79
2022/10/09 09:44:31;;;;;;;3.28;1.80;;;;;;;;;;5079543;28;20275;-78
2022/10/09 09:46:58;;;;;;;4.57;1.75;;;;;;;;;;5084952;28;20285;-79
2022/10/09 09:49:28;;;;;;;4.60;1.60;;;;;;;;;;5088635;28;20748;-78
2022/10/09 09:51:56;;;;;;;3.88;1.48;;;;;;;;;;5091436;28;20194;-79
2022/10/09 09:54:26;;;;;;;3.53;1.50;;;;;;;;;;5076641;28;20293;-78
2022/10/09 09:56:55;;;;;;;4.13;1.50;;;;;;;;;;5080693;28;20295;-79
2022/10/09 09:59:32;;;;;;;3.42;1.67;;;;;;;;;;5074775;28;20963;-79
2022/10/09 10:02:03;;;;;;;4.95;1.80;;;;;;;;;;5075438;28;20301;-79
2022/10/09 10:04:30;;;;;;;4.47;2.17;;;;;;;;;;5093060;28;20666;-79
2022/10/09 10:07:00;;;;;;;4.80;2.10;;;;;;;;;;5078919;28;20205;-79
2022/10/09 10:09:30;;;;;;;3.72;1.83;;;;;;;;;;5074690;28;20226;-79
2022/10/09 10:11:58;;;;;;;2.95;1.60;;;;;;;;;;5079482;28;20199;-78
2022/10/09 10:14:26;;;;;;;3.08;1.52;;;;;;;;;;5081503;28;20233;-80
2022/10/09 10:16:55;;;;;;;4.32;1.85;;;;;;;;;;5090687;28;20302;-79
2022/10/09 10:19:23;;;;;;;5.80;2.78;;;;;;;;;;5085843;28;20202;-80
2022/10/09 10:21:56;;;;;;;7.05;2.95;;;;;;;;;;5083888;28;20710;-80
2022/10/09 10:24:26;;;;;;;5.70;2.40;;;;;;;;;;5080483;28;20230;-80
2022/10/09 10:26:58;;;;;;;3.60;2.10;;;;;;;;;;5074231;28;20217;-80
2022/10/09 10:29:28;;;;;;;3.97;2.30;;;;;;;;;;5078078;28;20300;-80
2022/10/09 10:31:57;;;;;;;4.55;2.08;;;;;;;;;;5071740;28;20686;-80
2022/10/09 10:34:26;;;;;;;4.75;2.42;;;;;;;;;;5074242;28;20231;-79
2022/10/09 10:36:56;;;;;;;5.43;2.63;;;;;;;;;;5083186;28;20737;-80
2022/10/09 10:39:27;;;;;;;5.65;2.38;;;;;;;;;;5085601;28;20199;-80
2022/10/09 10:41:58;;;;;;;3.40;2.20;;;;;;;;;;5079076;28;20249;-79
2022/10/09 10:44:34;;;;;;;3.95;2.45;;;;;;;;;;5071787;28;20199;-79
2022/10/09 10:47:04;;;;;;;5.20;1.70;;;;;;;;;;5073388;28;20688;-80
2022/10/09 10:49:32;;;;;;;4.95;1.90;;;;;;;;;;5072228;28;20849;-80
2022/10/09 10:52:17;;;;;;;3.72;1.75;;;;;;;;;;5082730;28;20281;-80
2022/10/09 10:54:49;;;;;;;2.63;1.50;;;;;;;;;;5079647;28;20218;-81
2022/10/09 10:57:21;;;;;;;8.60;1.80;;;;;;;;;;5083833;28;20232;-80
2022/10/09 10:59:59;;;;;;;3.88;1.70;;;;;;;;;;5084964;28;20210;-80
2022/10/09 11:02:44;;;;;;;4.25;1.50;;;;;;;;;;5088011;28;20640;-81
2022/10/09 11:05:16;;;;;;;4.65;1.50;;;;;;;;;;5073533;28;20206;-79
2022/10/09 11:07:45;;;;;;;3.10;1.25;;;;;;;;;;5078536;28;20233;-81
2022/10/09 11:10:16;;;;;;;5.88;1.92;;;;;;;;;;5077589;28;20334;-81
2022/10/09 11:12:50;;;;;;;3.55;1.70;;;;;;;;;;5078212;28;20681;-80
2022/10/09 11:15:23;;;;;;;3.40;1.60;;;;;;;;;;5077783;28;20233;-80
2022/10/09 11:17:54;;;;;;;3.33;1.52;;;;;;;;;;5076288;28;20633;-81
2022/10/09 11:20:33;;;;;;;3.03;1.40;;;;;;;;;;5077029;28;20677;-81
2022/10/09 11:23:06;;;;;;;2.67;1.50;;;;;;;;;;5079329;28;20211;-80
2022/10/09 11:25:38;;;;;;;2.97;1.60;;;;;;;;;;5080663;28;20244;-81
2022/10/09 11:28:11;;;;;;;2.10;1.10;;;;;;;;;;5083481;28;20285;-81
2022/10/09 11:30:42;;;;;;;4.38;2.50;;;;;;;;;;5078593;28;20237;-80
2022/10/09 11:33:16;;;;;;;4.00;2.03;;;;;;;;;;5073600;28;20900;-81
2022/10/09 11:35:45;;;;;;;3.55;1.40;;;;;;;;;;5083213;28;20573;-80
2022/10/09 11:38:28;;;;;;;4.18;1.80;;;;;;;;;;5083584;28;20285;-81
2022/10/09 11:40:56;;;;;;;4.38;1.80;;;;;;;;;;5076614;28;20894;-80
2022/10/09 11:43:37;;;;;;;2.88;1.67;;;;;;;;;;5085852;28;20226;-80
2022/10/09 11:46:08;;;;;;;6.57;2.47;;;;;;;;;;5075430;28;20647;-80
2022/10/09 11:48:38;;;;;;;5.03;2.00;;;;;;;;;;5077087;28;20674;-80
2022/10/09 11:51:10;;;;;;;4.03;2.40;;;;;;;;;;5089067;28;20226;-79
2022/10/09 11:53:38;;;;;;;3.33;1.83;;;;;;;;;;5080801;28;20205;-80
2022/10/09 11:56:18;;;;;;;4.15;1.83;;;;;;;;;;5075786;28;20689;-80
2022/10/09 11:58:56;;;;;;;7.05;3.80;;;;;;;;;;5083689;28;20286;-78
2022/10/09 12:01:24;;;;;;;6.45;3.28;;;;;;;;;;5090813;28;20712;-79
2022/10/09 12:04:00;;;;;;;2.72;1.65;;;;;;;;;;5080401;28;20326;-79
2022/10/09 12:06:27;;;;;;;4.60;2.20;;;;;;;;;;5083001;28;20277;-80
2022/10/09 12:08:55;;;;;;;5.10;2.08;;;;;;;;;;5075324;28;20650;-80
2022/10/09 12:11:24;;;;;;;5.10;1.70;;;;;;;;;;5079252;28;20234;-80
2022/10/09 12:13:53;;;;;;;5.43;3.45;;;;;;;;;;5086326;28;20237;-80
2022/10/09 12:16:35;;;;;;;5.88;2.35;;;;;;;;;;5082520;28;20230;-80
2022/10/09 12:19:03;;;;;;;6.78;2.63;;;;;;;;;;5086698;28;20202;-80
2022/10/09 12:21:33;;;;;;;4.43;2.70;;;;;;;;;;5079943;28;20293;-80
2022/10/09 12:24:01;;;;;;;3.10;1.58;;;;;;;;;;5080892;28;20229;-79
2022/10/09 12:26:29;;;;;;;5.47;1.90;;;;;;;;;;5083403;28;20281;-80
2022/10/09 12:28:59;;;;;;;6.50;1.90;;;;;;;;;;5078811;28;20253;-80
2022/10/09 12:31:28;;;;;;;3.10;1.35;;;;;;;;;;5078927;28;20191;-79
2022/10/09 12:33:57;;;;;;;3.50;1.65;;;;;;;;;;5074101;28;20290;-79
2022/10/09 12:36:26;;;;;;;3.10;1.33;;;;;;;;;;5073478;28;20242;-79
2022/10/09 12:38:53;;;;;;;2.55;1.13;;;;;;;;;;5078630;28;20226;-80
2022/10/09 12:41:23;;;;;;;3.20;1.45;;;;;;;;;;5079551;28;20307;-79
2022/10/09 12:43:52;;;;;;;4.68;1.80;;;;;;;;;;5086658;28;20203;-79
2022/10/09 12:46:28;;;;;;;3.55;1.50;;;;;;;;;;5077850;28;20303;-79
2022/10/09 12:48:56;;;;;;;5.35;1.52;;;;;;;;;;5077109;28;20274;-80
2022/10/09 12:51:25;;;;;;;3.63;1.42;;;;;;;;;;5080053;28;20570;-79
2022/10/09 12:53:53;;;;;;;4.78;1.40;;;;;;;;;;5083966;28;20207;-79
2022/10/09 12:56:22;;;;;;;4.30;1.50;;;;;;;;;;5083909;28;20340;-79
2022/10/09 12:58:49;;;;;;;2.97;1.40;;;;;;;;;;5082280;28;20336;-81
2022/10/09 13:01:17;;;;;;;7.03;1.48;;;;;;;;;;5089835;28;20222;-81
2022/10/09 13:03:53;;;;;;;4.47;1.48;;;;;;;;;;5089549;28;20751;-80
2022/10/09 13:06:21;;;;;;;4.35;1.60;;;;;;;;;;5082799;28;20238;-78
2022/10/09 13:08:52;;;;;;;5.05;1.45;;;;;;;;;;5081347;28;20227;-79
2022/10/09 13:11:21;;;;;;;4.05;1.83;;;;;;;;;;5087818;28;20277;-79
2022/10/09 13:13:49;;;;;;;2.78;1.58;;;;;;;;;;5074114;28;20287;-79
2022/10/09 13:16:16;;;;;;;5.03;1.60;;;;;;;;;;5091155;28;20229;-79
2022/10/09 13:18:43;;;;;;;3.30;1.20;;;;;;;;;;5090406;28;20654;-79
2022/10/09 13:21:23;;;;;;;6.07;1.55;;;;;;;;;;5089980;28;20206;-79
2022/10/09 13:23:50;;;;;;;4.25;1.40;;;;;;;;;;5080419;28;20207;-79
2022/10/09 13:26:23;;;;;;;6.60;1.52;;;;;;;;;;5081134;28;20219;-79
2022/10/09 13:28:50;;;;;;;2.80;1.50;;;;;;;;;;5075335;28;20584;-78
2022/10/09 13:31:18;;;;;;;3.45;1.70;;;;;;;;;;5073218;28;20218;-79
2022/10/09 13:33:45;;;;;;;3.78;1.58;;;;;;;;;;5088297;28;20202;-79
2022/10/09 13:36:13;;;;;;;3.67;1.50;;;;;;;;;;5080844;28;20200;-79
2022/10/09 13:38:41;;;;;;;4.60;1.63;;;;;;;;;;5076843;28;20231;-79
2022/10/09 13:41:10;;;;;;;2.55;1.30;;;;;;;;;;5084892;28;20282;-79
2022/10/09 13:43:37;;;;;;;5.30;1.75;;;;;;;;;;5090041;28;20226;-79
2022/10/09 13:46:05;;;;;;;4.85;1.65;;;;;;;;;;5077034;28;20199;-79
2022/10/09 13:48:32;;;;;;;4.05;1.58;;;;;;;;;;5087508;28;20289;-80
2022/10/09 13:50:59;;;;;;;6.65;1.52;;;;;;;;;;5076455;28;20199;-79
2022/10/09 13:53:27;;;;;;;4.25;1.98;;;;;;;;;;5074802;28;20545;-80
2022/10/09 13:55:56;;;;;;;4.13;1.60;;;;;;;;;;5081582;28;20225;-80
2022/10/09 13:58:23;;;;;;;4.18;1.77;;;;;;;;;;5083841;28;20203;-80
2022/10/09 14:00:50;;;;;;;6.32;1.60;;;;;;;;;;5084971;28;20242;-80
2022/10/09 14:03:17;;;;;;;4.03;1.65;;;;;;;;;;5078175;28;20317;-79
2022/10/09 14:05:45;;;;;;;4.55;1.42;;;;;;;;;;5078083;28;20647;-80
2022/10/09 14:08:12;;;;;;;4.90;1.50;;;;;;;;;;5073190;28;20241;-79
2022/10/09 14:10:41;;;;;;;4.03;1.67;;;;;;;;;;5091137;28;20237;-80
2022/10/09 14:13:10;;;;;;;4.25;1.33;;;;;;;;;;5082386;28;20282;-80
2022/10/09 14:15:39;;;;;;;5.03;1.50;;;;;;;;;;5079488;28;20289;-80
2022/10/09 14:18:07;;;;;;;3.80;1.27;;;;;;;;;;5074693;28;20225;-79
2022/10/09 14:20:34;;;;;;;6.03;1.50;;;;;;;;;;5086944;28;20251;-78
2022/10/09 14:23:02;;;;;;;5.25;1.35;;;;;;;;;;5085593;28;20258;-81
2022/10/09 14:25:29;;;;;;;4.95;1.48;;;;;;;;;;5086368;28;20238;-80
2022/10/09 14:27:56;;;;;;;2.45;1.40;;;;;;;;;;5083649;28;20339;-81
2022/10/09 14:30:25;;;;;;;6.50;1.30;;;;;;;;;;5081707;28;20302;-80
2022/10/09 14:32:52;;;;;;;3.03;1.40;;;;;;;;;;5080400;28;20230;-81
2022/10/09 14:35:19;;;;;;;5.93;1.52;;;;;;;;;;5079243;28;20234;-80
2022/10/09 14:37:46;;;;;;;4.30;1.50;;;;;;;;;;5078820;28;20391;-81
2022/10/09 14:40:13;;;;;;;6.20;1.55;;;22.30;93.90;;;;;;5080964;28;20198;-81
2022/10/09 14:42:41;;;;;;;3.28;1.30;;;22.60;94.70;;;;;;5071850;28;20306;-80
2022/10/09 14:45:09;;;;;;;5.57;1.85;;;22.30;81.80;;;;;;5074863;28;20227;-81
2022/10/09 14:47:37;;;;;;;5.30;1.58;;;21.40;85.50;;;;;;5079270;28;20627;-81
2022/10/09 14:50:05;;;;;;;4.10;1.48;;;21.50;94.00;;;;;;5085197;28;20709;-81